sensor_id;sensor_type;location;lat;lon;timestamp;pressure;altitude;pressure_sealevel;temperature;humidity
46392;BME280;32098;49.448;7.904;2023-01-30T00:01:06;98871.34;;;-1.24;72.07
46392;BME280;32098;49.448;7.904;2023-01-30T00:03:37;98887.34;;;-1.27;72.65
46392;BME280;32098;49.448;7.904;2023-01-30T00:06:04;98885.13;;;-1.22;72.23
46392;BME280;32098;49.448;7.904;2023-01-30T00:08:30;98875.06;;;-1.17;72.18
46392;BME280;32098;49.448;7.904;2023-01-30T00:11:02;98864.84;;;-1.20;71.95
46392;BME280;32098;49.448;7.904;2023-01-30T00:13:29;98827.53;;;-1.41;71.60
46392;BME280;32098;49.448;7.904;2023-01-30T00:15:56;98850.00;;;-1.38;71.75
46392;BME280;32098;49.448;7.904;2023-01-30T00:18:22;98856.47;;;-1.33;72.30
46392;BME280;32098;49.448;7.904;2023-01-30T00:21:01;98851.66;;;-1.28;72.20
46392;BME280;32098;49.448;7.904;2023-01-30T00:23:28;98847.94;;;-1.35;72.71
46392;BME280;32098;49.448;7.904;2023-01-30T00:25:55;98833.72;;;-1.42;72.07
46392;BME280;32098;49.448;7.904;2023-01-30T00:28:22;98848.19;;;-1.38;72.59
46392;BME280;32098;49.448;7.904;2023-01-30T00:30:50;98770.19;;;-1.92;73.01
46392;BME280;32098;49.448;7.904;2023-01-30T00:33:18;98848.19;;;-1.38;74.05
46392;BME280;32098;49.448;7.904;2023-01-30T00:35:46;98870.53;;;-1.34;74.04
46392;BME280;32098;49.448;7.904;2023-01-30T00:38:13;98869.16;;;-1.38;74.05
46392;BME280;32098;49.448;7.904;2023-01-30T00:40:40;98860.22;;;-1.45;74.30
46392;BME280;32098;49.448;7.904;2023-01-30T00:43:10;98857.59;;;-1.45;74.87
46392;BME280;32098;49.448;7.904;2023-01-30T00:45:56;98841.19;;;-1.37;74.42
46392;BME280;32098;49.448;7.904;2023-01-30T00:48:42;98838.69;;;-1.39;74.90
46392;BME280;32098;49.448;7.904;2023-01-30T00:51:08;98839.94;;;-1.43;74.95
46392;BME280;32098;49.448;7.904;2023-01-30T00:53:35;98815.69;;;-1.45;75.60
46392;BME280;32098;49.448;7.904;2023-01-30T00:56:02;98810.53;;;-1.37;75.42
46392;BME280;32098;49.448;7.904;2023-01-30T00:58:29;98795.81;;;-1.38;75.38
46392;BME280;32098;49.448;7.904;2023-01-30T01:00:55;98765.63;;;-1.51;75.83
46392;BME280;32098;49.448;7.904;2023-01-30T01:03:22;98794.72;;;-1.45;75.39
46392;BME280;32098;49.448;7.904;2023-01-30T01:05:48;98796.09;;;-1.50;75.37
46392;BME280;32098;49.448;7.904;2023-01-30T01:08:15;98792.66;;;-1.51;76.29
46392;BME280;32098;49.448;7.904;2023-01-30T01:10:42;98793.06;;;-1.55;75.83
46392;BME280;32098;49.448;7.904;2023-01-30T01:13:08;98791.97;;;-1.53;76.19
46392;BME280;32098;49.448;7.904;2023-01-30T01:15:35;98775.16;;;-1.60;76.21
46392;BME280;32098;49.448;7.904;2023-01-30T01:18:04;98790.56;;;-1.57;76.08
46392;BME280;32098;49.448;7.904;2023-01-30T01:20:30;98774.84;;;-1.57;76.04
46392;BME280;32098;49.448;7.904;2023-01-30T01:22:57;98737.53;;;-1.68;76.35
46392;BME280;32098;49.448;7.904;2023-01-30T01:25:24;98769.06;;;-1.51;75.95
46392;BME280;32098;49.448;7.904;2023-01-30T01:27:52;98767.03;;;-1.47;76.50
46392;BME280;32098;49.448;7.904;2023-01-30T01:30:19;98778.59;;;-1.50;76.16
46392;BME280;32098;49.448;7.904;2023-01-30T01:32:46;98771.28;;;-1.56;75.96
46392;BME280;32098;49.448;7.904;2023-01-30T01:35:12;98778.19;;;-1.64;76.57
46392;BME280;32098;49.448;7.904;2023-01-30T01:37:39;98773.78;;;-1.64;76.51
46392;BME280;32098;49.448;7.904;2023-01-30T01:40:06;98786.16;;;-1.56;76.82
46392;BME280;32098;49.448;7.904;2023-01-30T01:42:51;98777.63;;;-1.58;76.74
46392;BME280;32098;49.448;7.904;2023-01-30T01:45:19;98768.53;;;-1.64;76.63
46392;BME280;32098;49.448;7.904;2023-01-30T01:48:03;98757.25;;;-1.74;77.28
46392;BME280;32098;49.448;7.904;2023-01-30T01:50:54;98768.41;;;-1.72;78.11
46392;BME280;32098;49.448;7.904;2023-01-30T01:53:27;98744.00;;;-1.82;77.78
46392;BME280;32098;49.448;7.904;2023-01-30T01:55:57;98748.28;;;-1.81;77.72
46392;BME280;32098;49.448;7.904;2023-01-30T01:58:37;98720.03;;;-1.87;78.66
46392;BME280;32098;49.448;7.904;2023-01-30T02:01:05;98688.91;;;-2.00;78.97
46392;BME280;32098;49.448;7.904;2023-01-30T02:03:36;98694.59;;;-1.85;78.63
46392;BME280;32098;49.448;7.904;2023-01-30T02:06:06;98690.56;;;-1.89;78.92
46392;BME280;32098;49.448;7.904;2023-01-30T02:08:41;98698.00;;;-1.75;78.94
46392;BME280;32098;49.448;7.904;2023-01-30T02:11:36;98701.84;;;-1.79;79.07
46392;BME280;32098;49.448;7.904;2023-01-30T02:14:04;98694.44;;;-1.84;78.76
46392;BME280;32098;49.448;7.904;2023-01-30T02:16:31;98700.06;;;-1.79;79.00
46392;BME280;32098;49.448;7.904;2023-01-30T02:18:58;98671.56;;;-1.91;78.69
46392;BME280;32098;49.448;7.904;2023-01-30T02:21:49;98695.81;;;-1.70;78.84
46392;BME280;32098;49.448;7.904;2023-01-30T02:24:33;98694.41;;;-1.74;78.78
46392;BME280;32098;49.448;7.904;2023-01-30T02:30:39;98701.84;;;-1.79;79.49
46392;BME280;32098;49.448;7.904;2023-01-30T02:33:54;98679.56;;;-2.02;79.96
46392;BME280;32098;49.448;7.904;2023-01-30T02:36:29;98663.59;;;-1.99;80.44
46392;BME280;32098;49.448;7.904;2023-01-30T02:39:10;98653.13;;;-1.99;79.81
46392;BME280;32098;49.448;7.904;2023-01-30T02:44:17;98661.66;;;-1.88;79.38
46392;BME280;32098;49.448;7.904;2023-01-30T02:46:55;98669.91;;;-1.83;79.82
46392;BME280;32098;49.448;7.904;2023-01-30T02:49:30;98660.28;;;-2.01;79.63
46392;BME280;32098;49.448;7.904;2023-01-30T02:51:58;98690.44;;;-1.88;79.88
46392;BME280;32098;49.448;7.904;2023-01-30T02:54:26;98677.75;;;-1.92;79.25
46392;BME280;32098;49.448;7.904;2023-01-30T02:56:56;98692.22;;;-1.79;79.88
46392;BME280;32098;49.448;7.904;2023-01-30T02:59:36;98671.81;;;-1.85;79.95
46392;BME280;32098;49.448;7.904;2023-01-30T03:08:08;98691.69;;;-2.01;81.37
46392;BME280;32098;49.448;7.904;2023-01-30T03:10:46;98695.25;;;-1.83;81.05
46392;BME280;32098;49.448;7.904;2023-01-30T03:13:41;98687.41;;;-1.83;80.94
46392;BME280;32098;49.448;7.904;2023-01-30T03:16:20;98691.41;;;-1.89;81.26
46392;BME280;32098;49.448;7.904;2023-01-30T03:18:48;98686.72;;;-1.95;81.16
46392;BME280;32098;49.448;7.904;2023-01-30T03:21:16;98687.00;;;-1.88;81.71
46392;BME280;32098;49.448;7.904;2023-01-30T03:23:46;98691.53;;;-1.81;81.39
46392;BME280;32098;49.448;7.904;2023-01-30T03:26:22;98691.13;;;-1.76;80.58
46392;BME280;32098;49.448;7.904;2023-01-30T03:28:51;98683.41;;;-1.87;80.83
46392;BME280;32098;49.448;7.904;2023-01-30T03:31:18;98684.94;;;-1.94;81.29
46392;BME280;32098;49.448;7.904;2023-01-30T03:33:45;98683.84;;;-2.01;81.13
46392;BME280;32098;49.448;7.904;2023-01-30T03:36:12;98691.69;;;-2.01;81.16
46392;BME280;32098;49.448;7.904;2023-01-30T03:38:39;98682.59;;;-1.97;81.80
46392;BME280;32098;49.448;7.904;2023-01-30T03:41:05;98690.31;;;-2.05;82.62
46392;BME280;32098;49.448;7.904;2023-01-30T03:43:33;98691.81;;;-1.93;82.11
46392;BME280;32098;49.448;7.904;2023-01-30T03:46:01;98704.22;;;-1.95;82.16
46392;BME280;32098;49.448;7.904;2023-01-30T03:48:28;98695.56;;;-1.96;82.42
46392;BME280;32098;49.448;7.904;2023-01-30T03:50:55;98686.19;;;-2.08;82.73
46392;BME280;32098;49.448;7.904;2023-01-30T03:53:21;98663.75;;;-2.20;83.31
46392;BME280;32098;49.448;7.904;2023-01-30T03:55:48;98680.94;;;-1.89;82.65
46392;BME280;32098;49.448;7.904;2023-01-30T03:58:20;98665.53;;;-2.01;83.20
46392;BME280;32098;49.448;7.904;2023-01-30T04:00:47;98651.75;;;-2.03;83.61
46392;BME280;32098;49.448;7.904;2023-01-30T04:03:13;98667.72;;;-1.97;83.42
46392;BME280;32098;49.448;7.904;2023-01-30T04:05:42;98636.66;;;-2.48;83.88
46392;BME280;32098;49.448;7.904;2023-01-30T04:08:09;98669.09;;;-2.12;83.81
46392;BME280;32098;49.448;7.904;2023-01-30T04:10:35;98634.44;;;-2.23;83.91
46392;BME280;32098;49.448;7.904;2023-01-30T04:13:02;98670.75;;;-2.01;83.72
46392;BME280;32098;49.448;7.904;2023-01-30T04:15:30;98646.13;;;-2.08;83.66
46392;BME280;32098;49.448;7.904;2023-01-30T04:18:15;98659.59;;;-1.94;83.34
46392;BME280;32098;49.448;7.904;2023-01-30T04:21:02;98637.59;;;-2.10;82.99
46392;BME280;32098;49.448;7.904;2023-01-30T04:23:34;98670.19;;;-1.86;83.36
46392;BME280;32098;49.448;7.904;2023-01-30T04:26:02;98669.22;;;-1.75;82.53
46392;BME280;32098;49.448;7.904;2023-01-30T04:28:30;98675.13;;;-1.73;82.28
46392;BME280;32098;49.448;7.904;2023-01-30T04:30:56;98667.94;;;-1.61;81.62
46392;BME280;32098;49.448;7.904;2023-01-30T04:33:41;98666.28;;;-1.62;81.75
46392;BME280;32098;49.448;7.904;2023-01-30T04:36:10;98652.31;;;-1.90;81.70
46392;BME280;32098;49.448;7.904;2023-01-30T04:38:37;98641.78;;;-1.71;81.93
46392;BME280;32098;49.448;7.904;2023-01-30T04:41:05;98660.22;;;-1.63;81.66
46392;BME280;32098;49.448;7.904;2023-01-30T04:43:34;98649.06;;;-1.65;82.03
46392;BME280;32098;49.448;7.904;2023-01-30T04:46:27;98625.78;;;-1.68;81.50
46392;BME280;32098;49.448;7.904;2023-01-30T04:48:54;98628.81;;;-1.63;82.00
46392;BME280;32098;49.448;7.904;2023-01-30T04:51:21;98543.28;;;-2.18;82.62
46392;BME280;32098;49.448;7.904;2023-01-30T04:53:47;98634.31;;;-1.66;82.88
46392;BME280;32098;49.448;7.904;2023-01-30T04:56:14;98627.94;;;-1.54;82.60
46392;BME280;32098;49.448;7.904;2023-01-30T04:58:41;98618.84;;;-1.50;82.97
46392;BME280;32098;49.448;7.904;2023-01-30T05:03:39;98628.22;;;-1.57;82.22
46392;BME280;32098;49.448;7.904;2023-01-30T05:06:06;98625.72;;;-1.49;82.40
46392;BME280;32098;49.448;7.904;2023-01-30T05:08:32;98604.25;;;-1.52;82.87
46392;BME280;32098;49.448;7.904;2023-01-30T05:10:59;98603.41;;;-1.53;82.68
46392;BME280;32098;49.448;7.904;2023-01-30T05:13:25;98604.38;;;-1.54;82.31
46392;BME280;32098;49.448;7.904;2023-01-30T05:15:51;98609.31;;;-1.51;83.44
46392;BME280;32098;49.448;7.904;2023-01-30T05:18:18;98578.91;;;-1.61;82.68
46392;BME280;32098;49.448;7.904;2023-01-30T05:20:44;98585.13;;;-1.62;82.51
46392;BME280;32098;49.448;7.904;2023-01-30T05:23:11;98595.56;;;-1.53;82.24
46392;BME280;32098;49.448;7.904;2023-01-30T05:25:37;98572.31;;;-1.65;82.70
46392;BME280;32098;49.448;7.904;2023-01-30T05:28:04;98599.56;;;-1.58;82.53
46392;BME280;32098;49.448;7.904;2023-01-30T05:30:30;98590.31;;;-1.53;82.62
46392;BME280;32098;49.448;7.904;2023-01-30T05:32:57;98572.81;;;-1.52;82.72
46392;BME280;32098;49.448;7.904;2023-01-30T05:35:24;98565.38;;;-1.57;83.25
46392;BME280;32098;49.448;7.904;2023-01-30T05:37:50;98526.03;;;-1.75;82.98
46392;BME280;32098;49.448;7.904;2023-01-30T05:40:17;98564.97;;;-1.62;83.25
46392;BME280;32098;49.448;7.904;2023-01-30T05:42:44;98564.41;;;-1.56;83.46
46392;BME280;32098;49.448;7.904;2023-01-30T05:45:10;98558.28;;;-1.74;83.31
46392;BME280;32098;49.448;7.904;2023-01-30T05:47:37;98592.94;;;-1.53;83.03
46392;BME280;32098;49.448;7.904;2023-01-30T05:50:03;98588.53;;;-1.52;83.18
46392;BME280;32098;49.448;7.904;2023-01-30T05:52:30;98602.72;;;-1.55;83.11
46392;BME280;32098;49.448;7.904;2023-01-30T05:54:56;98588.06;;;-0.41;99.78
46392;BME280;32098;49.448;7.904;2023-01-30T05:57:23;98591.06;;;1.33;100.00
46392;BME280;32098;49.448;7.904;2023-01-30T05:59:49;98591.44;;;1.87;100.00
46392;BME280;32098;49.448;7.904;2023-01-30T06:02:16;98587.59;;;2.46;93.39
46392;BME280;32098;49.448;7.904;2023-01-30T06:04:42;98587.66;;;2.68;82.62
46392;BME280;32098;49.448;7.904;2023-01-30T06:07:09;98576.63;;;3.04;77.47
46392;BME280;32098;49.448;7.904;2023-01-30T06:09:35;98559.63;;;3.06;69.89
46392;BME280;32098;49.448;7.904;2023-01-30T06:12:02;98554.50;;;2.35;67.17
46392;BME280;32098;49.448;7.904;2023-01-30T06:14:28;98557.56;;;1.76;69.05
46392;BME280;32098;49.448;7.904;2023-01-30T06:16:54;98558.66;;;1.09;70.66
46392;BME280;32098;49.448;7.904;2023-01-30T06:19:22;98567.53;;;0.58;73.65
46392;BME280;32098;49.448;7.904;2023-01-30T06:21:49;98573.50;;;0.08;75.37
46392;BME280;32098;49.448;7.904;2023-01-30T06:24:15;98525.47;;;-0.35;77.03
46392;BME280;32098;49.448;7.904;2023-01-30T06:26:41;98571.00;;;-0.19;78.28
46392;BME280;32098;49.448;7.904;2023-01-30T06:29:08;98573.84;;;-0.56;79.61
46392;BME280;32098;49.448;7.904;2023-01-30T06:31:34;98577.97;;;-0.53;79.76
46392;BME280;32098;49.448;7.904;2023-01-30T06:34:01;98577.81;;;-0.69;80.28
46392;BME280;32098;49.448;7.904;2023-01-30T06:36:27;98597.50;;;-0.83;81.29
46392;BME280;32098;49.448;7.904;2023-01-30T06:38:54;98596.78;;;-0.75;81.26
46392;BME280;32098;49.448;7.904;2023-01-30T06:41:20;98584.59;;;-0.94;82.03
46392;BME280;32098;49.448;7.904;2023-01-30T06:43:47;98568.38;;;-0.97;82.13
46392;BME280;32098;49.448;7.904;2023-01-30T06:46:13;98548.88;;;-1.13;82.99
46392;BME280;32098;49.448;7.904;2023-01-30T06:48:40;98557.16;;;-1.35;84.04
46392;BME280;32098;49.448;7.904;2023-01-30T06:51:06;98559.06;;;-1.37;84.89
46392;BME280;32098;49.448;7.904;2023-01-30T06:53:33;98568.75;;;-1.37;85.03
46392;BME280;32098;49.448;7.904;2023-01-30T06:56:00;98561.13;;;-1.31;84.61
46392;BME280;32098;49.448;7.904;2023-01-30T06:58:26;98566.81;;;-1.35;85.06
46392;BME280;32098;49.448;7.904;2023-01-30T07:00:53;98565.69;;;-1.33;85.11
46392;BME280;32098;49.448;7.904;2023-01-30T07:03:19;98569.16;;;-1.42;85.69
46392;BME280;32098;49.448;7.904;2023-01-30T07:05:46;98580.13;;;-1.29;85.17
46392;BME280;32098;49.448;7.904;2023-01-30T07:08:14;98518.84;;;-1.63;85.26
46392;BME280;32098;49.448;7.904;2023-01-30T07:10:42;98584.78;;;-1.23;84.59
46392;BME280;32098;49.448;7.904;2023-01-30T07:13:08;98559.38;;;-1.40;85.24
46392;BME280;32098;49.448;7.904;2023-01-30T07:15:35;98573.53;;;-1.33;85.16
46392;BME280;32098;49.448;7.904;2023-01-30T07:18:02;98576.22;;;-1.25;85.31
46392;BME280;32098;49.448;7.904;2023-01-30T07:20:29;98581.19;;;-1.22;85.00
46392;BME280;32098;49.448;7.904;2023-01-30T07:22:56;98570.19;;;-1.25;85.38
46392;BME280;32098;49.448;7.904;2023-01-30T07:25:24;98566.34;;;-1.31;86.09
46392;BME280;32098;49.448;7.904;2023-01-30T07:27:56;98541.28;;;-1.33;86.13
46392;BME280;32098;49.448;7.904;2023-01-30T07:30:24;98565.63;;;-1.23;86.58
46392;BME280;32098;49.448;7.904;2023-01-30T07:32:53;98530.59;;;-1.49;86.38
46392;BME280;32098;49.448;7.904;2023-01-30T07:35:21;98525.63;;;-1.43;86.41
46392;BME280;32098;49.448;7.904;2023-01-30T07:37:49;98563.84;;;-1.23;86.29
46392;BME280;32098;49.448;7.904;2023-01-30T07:40:17;98601.63;;;-1.25;86.12
46392;BME280;32098;49.448;7.904;2023-01-30T07:42:54;98608.13;;;-1.29;86.38
46392;BME280;32098;49.448;7.904;2023-01-30T07:45:21;98603.81;;;-1.21;86.54
46392;BME280;32098;49.448;7.904;2023-01-30T07:47:47;98583.41;;;-1.27;85.83
46392;BME280;32098;49.448;7.904;2023-01-30T07:50:14;98572.28;;;-1.29;86.70
46392;BME280;32098;49.448;7.904;2023-01-30T07:52:41;98574.00;;;-1.37;86.24
46392;BME280;32098;49.448;7.904;2023-01-30T07:55:08;98549.81;;;-1.58;87.32
46392;BME280;32098;49.448;7.904;2023-01-30T07:57:34;98562.66;;;-1.65;87.85
46392;BME280;32098;49.448;7.904;2023-01-30T08:00:01;98586.59;;;-1.50;86.76
46392;BME280;32098;49.448;7.904;2023-01-30T08:02:34;98566.34;;;-1.58;86.27
46392;BME280;32098;49.448;7.904;2023-01-30T08:05:00;98588.44;;;-1.33;86.56
46392;BME280;32098;49.448;7.904;2023-01-30T08:07:29;98588.97;;;-1.30;86.43
46392;BME280;32098;49.448;7.904;2023-01-30T08:09:55;98587.03;;;-1.28;86.13
46392;BME280;32098;49.448;7.904;2023-01-30T08:12:22;98602.75;;;-1.28;86.41
46392;BME280;32098;49.448;7.904;2023-01-30T08:14:48;98596.00;;;-1.30;87.00
46392;BME280;32098;49.448;7.904;2023-01-30T08:17:14;98579.34;;;-1.39;86.62
46392;BME280;32098;49.448;7.904;2023-01-30T08:19:41;98601.09;;;-1.29;86.96
46392;BME280;32098;49.448;7.904;2023-01-30T08:22:07;98582.19;;;-1.23;86.91
46392;BME280;32098;49.448;7.904;2023-01-30T08:24:34;98589.72;;;-1.20;87.18
46392;BME280;32098;49.448;7.904;2023-01-30T08:27:01;98584.78;;;-1.23;86.48
46392;BME280;32098;49.448;7.904;2023-01-30T08:29:28;98582.56;;;-1.18;86.92
46392;BME280;32098;49.448;7.904;2023-01-30T08:31:58;98575.03;;;-1.03;86.61
46392;BME280;32098;49.448;7.904;2023-01-30T08:34:25;98563.88;;;-1.05;86.24
46392;BME280;32098;49.448;7.904;2023-01-30T08:36:52;98551.13;;;-1.18;86.22
46392;BME280;32098;49.448;7.904;2023-01-30T08:39:18;98577.53;;;-1.11;86.01
46392;BME280;32098;49.448;7.904;2023-01-30T08:41:45;98582.34;;;-1.07;86.03
46392;BME280;32098;49.448;7.904;2023-01-30T08:44:11;98576.53;;;-1.00;85.75
46392;BME280;32098;49.448;7.904;2023-01-30T08:46:38;98582.44;;;-0.98;85.88
46392;BME280;32098;49.448;7.904;2023-01-30T08:49:05;98577.50;;;-0.84;85.57
46392;BME280;32098;49.448;7.904;2023-01-30T08:51:31;98579.84;;;-0.81;85.40
46392;BME280;32098;49.448;7.904;2023-01-30T08:53:58;98566.19;;;-0.84;85.11
46392;BME280;32098;49.448;7.904;2023-01-30T08:56:24;98573.91;;;-0.83;85.41
46392;BME280;32098;49.448;7.904;2023-01-30T08:58:51;98578.72;;;-0.78;84.86
46392;BME280;32098;49.448;7.904;2023-01-30T09:01:18;98555.94;;;-0.95;85.32
46392;BME280;32098;49.448;7.904;2023-01-30T09:03:45;98573.38;;;-0.86;85.70
46392;BME280;32098;49.448;7.904;2023-01-30T09:06:12;98576.44;;;-0.91;85.75
46392;BME280;32098;49.448;7.904;2023-01-30T09:08:38;98569.03;;;-0.95;86.34
46392;BME280;32098;49.448;7.904;2023-01-30T09:11:05;98569.41;;;-0.90;86.03
46392;BME280;32098;49.448;7.904;2023-01-30T09:13:33;98548.53;;;-1.00;85.84
46392;BME280;32098;49.448;7.904;2023-01-30T09:16:00;98581.63;;;-0.81;85.86
46392;BME280;32098;49.448;7.904;2023-01-30T09:18:26;98552.03;;;-0.91;85.77
46392;BME280;32098;49.448;7.904;2023-01-30T09:21:01;98545.00;;;-0.73;85.06
46392;BME280;32098;49.448;7.904;2023-01-30T09:23:28;98546.94;;;-0.75;84.91
46392;BME280;32098;49.448;7.904;2023-01-30T09:25:55;98546.94;;;-0.75;85.36
46392;BME280;32098;49.448;7.904;2023-01-30T09:28:21;98552.94;;;-0.65;84.71
46392;BME280;32098;49.448;7.904;2023-01-30T09:30:48;98548.53;;;-0.65;85.08
46392;BME280;32098;49.448;7.904;2023-01-30T09:33:14;98546.56;;;-0.63;84.95
46392;BME280;32098;49.448;7.904;2023-01-30T09:35:48;98514.75;;;-0.85;84.97
46392;BME280;32098;49.448;7.904;2023-01-30T09:38:15;98527.53;;;-0.65;84.90
46392;BME280;32098;49.448;7.904;2023-01-30T09:41:02;98526.63;;;-0.56;84.58
46392;BME280;32098;49.448;7.904;2023-01-30T09:43:58;98547.16;;;-0.51;83.98
46392;BME280;32098;49.448;7.904;2023-01-30T09:46:45;98527.59;;;-0.74;84.47
46392;BME280;32098;49.448;7.904;2023-01-30T09:49:36;98548.50;;;-0.47;84.72
46392;BME280;32098;49.448;7.904;2023-01-30T09:55:16;98549.00;;;-0.44;84.31
46392;BME280;32098;49.448;7.904;2023-01-30T09:57:48;98552.06;;;-0.30;84.29
46392;BME280;32098;49.448;7.904;2023-01-30T10:03:08;98546.00;;;-0.31;83.67
46392;BME280;32098;49.448;7.904;2023-01-30T10:05:54;98545.34;;;-0.33;84.40
46392;BME280;32098;49.448;7.904;2023-01-30T10:08:51;98551.84;;;-0.37;84.23
46392;BME280;32098;49.448;7.904;2023-01-30T10:25:00;98546.16;;;-0.07;83.70
46392;BME280;32098;49.448;7.904;2023-01-30T10:27:29;98545.28;;;-0.15;83.63
46392;BME280;32098;49.448;7.904;2023-01-30T10:30:00;98544.47;;;-0.16;84.33
46392;BME280;32098;49.448;7.904;2023-01-30T10:32:41;98537.91;;;-0.12;83.71
46392;BME280;32098;49.448;7.904;2023-01-30T10:35:16;98524.19;;;-0.06;84.42
46392;BME280;32098;49.448;7.904;2023-01-30T10:37:57;98531.28;;;0.02;84.31
46392;BME280;32098;49.448;7.904;2023-01-30T10:40:40;98533.09;;;0.01;84.08
46392;BME280;32098;49.448;7.904;2023-01-30T10:43:25;98521.31;;;0.05;84.60
46392;BME280;32098;49.448;7.904;2023-01-30T10:45:59;98532.66;;;0.14;84.63
46392;BME280;32098;49.448;7.904;2023-01-30T10:53:51;98541.06;;;0.17;84.36
46392;BME280;32098;49.448;7.904;2023-01-30T10:56:36;98545.38;;;0.27;84.24
46392;BME280;32098;49.448;7.904;2023-01-30T10:59:15;98544.09;;;0.31;84.38
46392;BME280;32098;49.448;7.904;2023-01-30T11:01:58;98502.59;;;0.08;83.71
46392;BME280;32098;49.448;7.904;2023-01-30T11:04:58;98528.78;;;0.26;84.01
46392;BME280;32098;49.448;7.904;2023-01-30T11:07:29;98524.84;;;0.22;84.22
46392;BME280;32098;49.448;7.904;2023-01-30T11:09:56;98532.91;;;0.29;83.93
46392;BME280;32098;49.448;7.904;2023-01-30T11:12:23;98538.16;;;0.29;83.89
46392;BME280;32098;49.448;7.904;2023-01-30T11:14:57;98538.84;;;0.39;84.17
46392;BME280;32098;49.448;7.904;2023-01-30T11:17:30;98514.88;;;0.34;83.78
46392;BME280;32098;49.448;7.904;2023-01-30T11:20:02;98524.22;;;0.28;83.96
46392;BME280;32098;49.448;7.904;2023-01-30T11:22:30;98521.78;;;0.35;84.10
46392;BME280;32098;49.448;7.904;2023-01-30T11:25:02;98470.38;;;-0.10;84.26
46392;BME280;32098;49.448;7.904;2023-01-30T11:27:33;98520.75;;;0.28;84.43
46392;BME280;32098;49.448;7.904;2023-01-30T11:30:15;98532.25;;;0.27;84.00
46392;BME280;32098;49.448;7.904;2023-01-30T11:32:43;98521.06;;;0.24;84.34
46392;BME280;32098;49.448;7.904;2023-01-30T11:37:41;98504.00;;;0.20;84.51
46392;BME280;32098;49.448;7.904;2023-01-30T11:43:12;98509.25;;;0.20;84.58
46392;BME280;32098;49.448;7.904;2023-01-30T11:45:40;98533.53;;;0.22;84.67
46392;BME280;32098;49.448;7.904;2023-01-30T11:48:15;98523.88;;;0.23;84.54
46392;BME280;32098;49.448;7.904;2023-01-30T11:51:02;98511.88;;;0.29;84.41
46392;BME280;32098;49.448;7.904;2023-01-30T11:53:54;98491.13;;;0.09;84.88
46392;BME280;32098;49.448;7.904;2023-01-30T11:59:30;98515.22;;;0.31;84.83
46392;BME280;32098;49.448;7.904;2023-01-30T12:02:22;98518.00;;;0.37;84.83
46392;BME280;32098;49.448;7.904;2023-01-30T12:04:53;98499.09;;;0.34;84.33
46392;BME280;32098;49.448;7.904;2023-01-30T12:09:51;98491.72;;;0.29;85.90
46392;BME280;32098;49.448;7.904;2023-01-30T12:15:17;98509.38;;;0.53;85.31
46392;BME280;32098;49.448;7.904;2023-01-30T12:20:48;98502.47;;;0.52;85.24
46392;BME280;32098;49.448;7.904;2023-01-30T12:23:26;98470.22;;;0.26;85.79
46392;BME280;32098;49.448;7.904;2023-01-30T12:26:12;98514.91;;;0.42;85.92
46392;BME280;32098;49.448;7.904;2023-01-30T12:28:48;98521.69;;;0.52;86.36
46392;BME280;32098;49.448;7.904;2023-01-30T12:31:21;98515.25;;;0.47;86.04
46392;BME280;32098;49.448;7.904;2023-01-30T12:33:50;98505.53;;;0.39;86.92
46392;BME280;32098;49.448;7.904;2023-01-30T12:36:46;98510.97;;;0.46;86.39
46392;BME280;32098;49.448;7.904;2023-01-30T12:39:40;98488.28;;;0.37;86.88
46392;BME280;32098;49.448;7.904;2023-01-30T12:42:45;98519.53;;;0.56;86.52
46392;BME280;32098;49.448;7.904;2023-01-30T12:45:22;98518.41;;;0.50;86.26
46392;BME280;32098;49.448;7.904;2023-01-30T12:48:33;98496.22;;;0.45;86.33
46392;BME280;32098;49.448;7.904;2023-01-30T12:51:27;98520.25;;;0.58;86.46
46392;BME280;32098;49.448;7.904;2023-01-30T12:57:01;98532.03;;;0.54;86.89
46392;BME280;32098;49.448;7.904;2023-01-30T13:07:59;98532.69;;;0.56;86.79
46392;BME280;32098;49.448;7.904;2023-01-30T13:10:38;98537.28;;;0.54;86.91
46392;BME280;32098;49.448;7.904;2023-01-30T13:13:14;98545.94;;;0.46;87.04
46392;BME280;32098;49.448;7.904;2023-01-30T13:18:40;98519.34;;;0.41;87.53
46392;BME280;32098;49.448;7.904;2023-01-30T13:21:14;98502.34;;;0.19;88.50
46392;BME280;32098;49.448;7.904;2023-01-30T13:24:20;98525.59;;;0.40;88.47
46392;BME280;32098;49.448;7.904;2023-01-30T13:26:48;98534.78;;;0.44;89.16
46392;BME280;32098;49.448;7.904;2023-01-30T13:29:35;98529.72;;;0.51;89.06
46392;BME280;32098;49.448;7.904;2023-01-30T13:35:31;98519.09;;;0.68;88.75
46392;BME280;32098;49.448;7.904;2023-01-30T13:38:02;98511.22;;;0.60;88.49
46392;BME280;32098;49.448;7.904;2023-01-30T13:40:36;98527.50;;;0.72;88.75
46392;BME280;32098;49.448;7.904;2023-01-30T13:43:26;98536.38;;;0.79;88.93
46392;BME280;32098;49.448;7.904;2023-01-30T13:45:57;98533.28;;;0.83;88.78
46392;BME280;32098;49.448;7.904;2023-01-30T13:51:40;98530.88;;;0.98;87.92
46392;BME280;32098;49.448;7.904;2023-01-30T13:54:24;98502.75;;;0.91;87.68
46392;BME280;32098;49.448;7.904;2023-01-30T13:57:24;98526.59;;;1.05;87.25
46392;BME280;32098;49.448;7.904;2023-01-30T14:00:06;98529.88;;;1.07;87.25
46392;BME280;32098;49.448;7.904;2023-01-30T14:08:20;98491.41;;;0.90;86.35
46392;BME280;32098;49.448;7.904;2023-01-30T14:10:47;98537.97;;;1.30;86.06
46392;BME280;32098;49.448;7.904;2023-01-30T14:13:15;98546.34;;;1.33;86.27
46392;BME280;32098;49.448;7.904;2023-01-30T14:15:55;98553.78;;;1.38;86.09
46392;BME280;32098;49.448;7.904;2023-01-30T14:18:27;98556.22;;;1.39;85.97
46392;BME280;32098;49.448;7.904;2023-01-30T14:21:12;98560.16;;;1.43;85.69
46392;BME280;32098;49.448;7.904;2023-01-30T14:23:40;98556.22;;;1.39;85.90
46392;BME280;32098;49.448;7.904;2023-01-30T14:27:00;98566.44;;;1.42;85.33
46392;BME280;32098;49.448;7.904;2023-01-30T14:34:43;98569.88;;;1.35;86.16
46392;BME280;32098;49.448;7.904;2023-01-30T14:45:57;98570.50;;;1.29;86.20
46392;BME280;32098;49.448;7.904;2023-01-30T14:51:19;98574.81;;;1.30;86.61
46392;BME280;32098;49.448;7.904;2023-01-30T15:04:32;98596.66;;;1.38;86.58
46392;BME280;32098;49.448;7.904;2023-01-30T15:07:03;98603.06;;;1.36;86.64
46392;BME280;32098;49.448;7.904;2023-01-30T15:09:30;98601.44;;;1.35;86.63
46392;BME280;32098;49.448;7.904;2023-01-30T15:12:19;98608.69;;;1.33;86.75
46392;BME280;32098;49.448;7.904;2023-01-30T15:15:12;98610.31;;;1.34;86.84
46392;BME280;32098;49.448;7.904;2023-01-30T15:28:49;98609.63;;;1.24;86.70